createdAt,value
2023-04-08T00:05:31.935Z,10.88
2023-04-08T00:15:31.845Z,5.86
2023-04-08T00:25:31.882Z,5.01
2023-04-08T00:35:31.977Z,8.17
2023-04-08T00:45:31.861Z,9.56
2023-04-08T00:55:31.997Z,8.99
2023-04-08T01:05:31.992Z,10.02
2023-04-08T01:15:32.095Z,10.67
2023-04-08T01:25:32.389Z,8.99
2023-04-08T01:35:33.042Z,8.06
2023-04-08T01:45:32.968Z,11.59
2023-04-08T01:55:33.028Z,12.61
2023-04-08T02:05:33.177Z,10.20
2023-04-08T02:15:33.188Z,11.85
2023-04-08T02:25:33.026Z,10.36
2023-04-08T02:35:33.183Z,11.74
2023-04-08T02:45:33.303Z,9.97
2023-04-08T02:55:33.150Z,12.09
2023-04-08T03:05:33.184Z,12.84
2023-04-08T03:15:33.081Z,12.10
2023-04-08T03:25:33.142Z,15.06
2023-04-08T03:35:33.193Z,12.47
2023-04-08T03:45:33.210Z,10.80
2023-04-08T03:55:33.156Z,11.33
2023-04-08T04:05:33.294Z,9.12
2023-04-08T04:15:33.266Z,10.50
2023-04-08T04:25:33.455Z,10.49
2023-04-08T04:35:36.670Z,9.65
2023-04-08T04:45:37.196Z,11.58
2023-04-08T04:55:39.183Z,7.35
2023-04-08T05:05:39.269Z,10.20
2023-04-08T05:15:39.260Z,12.51
2023-04-08T05:25:39.351Z,12.79
2023-04-08T05:35:39.370Z,10.33
2023-04-08T05:45:58.650Z,12.29
2023-04-08T05:55:58.286Z,8.81
2023-04-08T06:05:58.373Z,5.47
2023-04-08T06:15:58.331Z,7.64
2023-04-08T06:25:58.924Z,7.29
2023-04-08T06:35:59.409Z,8.93
2023-04-08T06:45:59.476Z,8.37
2023-04-08T06:55:59.349Z,9.98
2023-04-08T07:05:59.414Z,11.64
2023-04-08T07:15:59.361Z,11.63
2023-04-08T07:25:59.473Z,9.39
2023-04-08T07:35:59.537Z,7.42
2023-04-08T07:45:59.435Z,10.86
2023-04-08T07:55:59.455Z,11.76
2023-04-08T08:05:59.557Z,15.81
2023-04-08T08:15:59.528Z,12.16
2023-04-08T08:25:59.581Z,12.72
2023-04-08T08:35:59.790Z,14.69
2023-04-08T08:45:59.558Z,9.81
2023-04-08T08:56:17.060Z,10.60
2023-04-08T09:06:01.714Z,14.10
2023-04-08T09:16:01.959Z,15.82
2023-04-08T09:26:02.557Z,11.06
2023-04-08T09:36:04.799Z,11.52
2023-04-08T09:46:05.577Z,9.59
2023-04-08T09:56:05.619Z,9.58
2023-04-08T10:06:07.536Z,8.93
2023-04-08T10:16:08.061Z,12.19
2023-04-08T10:26:08.603Z,9.98
2023-04-08T10:36:09.730Z,8.98
2023-04-08T10:46:10.115Z,9.01
2023-04-08T10:56:12.650Z,5.86
2023-04-08T11:06:12.868Z,6.96
2023-04-08T11:16:18.323Z,8.37
2023-04-08T11:26:15.815Z,6.38
2023-04-08T11:36:15.829Z,5.89
2023-04-08T11:46:15.824Z,5.58
2023-04-08T11:56:18.857Z,2.19
2023-04-08T12:06:18.975Z,4.79
2023-04-08T12:16:18.810Z,1.50
2023-04-08T12:26:19.334Z,2.30
2023-04-08T12:36:20.018Z,0.90
2023-04-08T12:46:20.390Z,1.60
2023-04-08T12:56:22.052Z,0.80
2023-04-08T13:06:21.874Z,3.40
2023-04-08T13:16:22.093Z,2.60
2023-04-08T13:26:21.991Z,2.10
2023-04-08T13:36:21.989Z,4.69
2023-04-08T13:46:34.888Z,3.60
2023-04-08T13:56:35.319Z,2.40
2023-04-08T14:06:36.029Z,5.39
2023-04-08T14:16:36.033Z,6.09
2023-04-08T14:26:36.114Z,13.18
2023-04-08T14:36:36.037Z,11.57
2023-04-08T14:46:36.056Z,1.90
2023-04-08T14:56:36.608Z,9.77
2023-04-08T15:06:38.552Z,9.37
2023-04-08T15:16:39.122Z,11.16
2023-04-08T15:26:39.330Z,5.78
2023-04-08T15:36:39.356Z,8.16
2023-04-08T15:46:39.130Z,6.66
2023-04-08T15:56:39.117Z,7.26
2023-04-08T16:06:39.110Z,6.46
2023-04-08T16:16:39.355Z,4.17
2023-04-08T16:26:40.811Z,5.06
2023-04-08T16:36:41.268Z,5.75
2023-04-08T16:46:41.319Z,5.05
2023-04-08T16:56:43.552Z,5.83
2023-04-08T17:06:44.359Z,5.13
2023-04-08T17:16:44.397Z,7.48
2023-04-08T17:26:44.252Z,3.54
2023-04-08T17:36:44.571Z,6.28
2023-04-08T17:46:44.369Z,6.36
2023-04-08T17:56:45.205Z,5.28
2023-04-08T18:06:46.306Z,9.27
2023-04-08T18:16:46.379Z,6.92
2023-04-08T18:26:49.104Z,5.74
2023-04-08T18:36:48.306Z,9.42
2023-04-08T18:46:48.391Z,8.04
2023-04-08T18:56:48.791Z,6.19
2023-04-08T19:06:49.442Z,9.85
2023-04-08T19:16:49.429Z,7.43
2023-04-08T19:26:50.337Z,11.17
2023-04-08T19:36:50.446Z,5.87
2023-04-08T19:46:50.609Z,6.15
2023-04-08T19:56:51.381Z,9.68
2023-04-08T20:06:51.459Z,11.76
2023-04-08T20:16:52.016Z,9.35
2023-04-08T20:26:53.104Z,9.92
2023-04-08T20:36:53.448Z,8.68
2023-04-08T20:46:54.272Z,4.48
2023-04-08T20:56:54.525Z,7.25
2023-04-08T21:06:54.618Z,8.01
2023-04-08T21:16:54.597Z,5.05
2023-04-08T21:26:54.485Z,8.58
2023-04-08T21:36:54.567Z,6.19
2023-04-08T21:46:54.766Z,5.81
2023-04-08T21:56:54.563Z,6.76
2023-04-08T22:06:54.602Z,8.95
2023-04-08T22:16:54.581Z,8.86
2023-04-08T22:26:55.577Z,5.33
2023-04-08T22:36:55.947Z,9.05
2023-04-08T22:46:55.812Z,7.52
2023-04-08T22:56:56.148Z,6.76
2023-04-08T23:06:56.633Z,7.62
2023-04-08T23:16:56.625Z,9.53
2023-04-08T23:26:56.990Z,6.67
2023-04-08T23:36:56.745Z,8.76
2023-04-08T23:46:56.791Z,6.76
2023-04-08T23:56:56.858Z,8.75
